createdAt,value
2023-04-04T00:02:24.308Z,1.90
2023-04-04T00:04:51.223Z,1.80
2023-04-04T00:07:17.820Z,1.91
2023-04-04T00:09:44.389Z,2.06
2023-04-04T00:12:11.233Z,1.98
2023-04-04T00:14:37.873Z,2.03
2023-04-04T00:17:04.542Z,1.97
2023-04-04T00:19:31.202Z,1.98
2023-04-04T00:21:57.806Z,1.76
2023-04-04T00:24:25.024Z,1.93
2023-04-04T00:26:51.940Z,2.02
2023-04-04T00:29:18.789Z,1.79
2023-04-04T00:31:45.877Z,1.63
2023-04-04T00:34:12.560Z,1.75
2023-04-04T00:36:39.192Z,2.07
2023-04-04T00:39:05.967Z,2.03
2023-04-04T00:41:32.911Z,1.95
2023-04-04T00:43:59.542Z,1.90
2023-04-04T00:46:28.224Z,1.99
2023-04-04T00:48:55.592Z,2.12
2023-04-04T00:51:22.313Z,1.99
2023-04-04T00:53:51.028Z,2.06
2023-04-04T00:56:18.335Z,1.86
2023-04-04T00:58:45.309Z,1.90
2023-04-04T01:01:12.901Z,1.91
2023-04-04T01:03:40.045Z,1.63
2023-04-04T01:06:09.914Z,1.49
2023-04-04T01:08:40.299Z,1.65
2023-04-04T01:11:07.350Z,1.48
2023-04-04T01:13:34.158Z,1.63
2023-04-04T01:16:01.850Z,1.76
2023-04-04T01:18:29.464Z,1.74
2023-04-04T01:21:10.865Z,1.92
2023-04-04T01:23:56.140Z,1.76
2023-04-04T01:26:23.850Z,1.80
2023-04-04T01:28:50.605Z,1.73
2023-04-04T01:31:23.490Z,1.61
2023-04-04T01:33:59.077Z,1.68
2023-04-04T01:36:36.776Z,1.58
2023-04-04T01:39:13.916Z,1.51
2023-04-04T01:41:42.048Z,1.46
2023-04-04T01:46:41.229Z,1.46
2023-04-04T01:49:08.998Z,1.38
2023-04-04T01:51:36.888Z,1.69
2023-04-04T01:54:03.829Z,1.36
2023-04-04T01:56:30.440Z,1.18
2023-04-04T01:58:57.119Z,1.53
2023-04-04T02:01:24.366Z,1.59
2023-04-04T02:03:51.115Z,1.56
2023-04-04T02:06:17.895Z,1.40
2023-04-04T02:08:44.575Z,1.53
2023-04-04T02:16:21.551Z,1.30
2023-04-04T02:18:48.364Z,1.45
2023-04-04T02:21:15.028Z,1.45
2023-04-04T02:23:41.791Z,1.36
2023-04-04T02:26:08.457Z,1.28
2023-04-04T02:28:35.104Z,1.29
2023-04-04T02:33:34.100Z,1.31
2023-04-04T02:36:00.860Z,1.40
2023-04-04T02:38:27.683Z,1.33
2023-04-04T02:43:25.684Z,1.41
2023-04-04T02:45:52.762Z,1.43
2023-04-04T02:48:19.499Z,1.49
2023-04-04T02:50:48.787Z,1.33
2023-04-04T02:53:15.515Z,1.43
2023-04-04T02:55:42.668Z,1.35
2023-04-04T02:58:09.541Z,1.17
2023-04-04T03:00:36.363Z,1.27
2023-04-04T03:03:04.004Z,1.26
2023-04-04T03:05:32.166Z,1.28
2023-04-04T03:07:59.615Z,1.42
2023-04-04T03:10:30.014Z,1.21
2023-04-04T03:12:57.606Z,1.39
2023-04-04T03:15:26.790Z,1.38
2023-04-04T03:17:54.332Z,1.35
2023-04-04T03:20:22.190Z,1.38
2023-04-04T03:22:49.417Z,1.39
2023-04-04T03:25:16.454Z,1.01
2023-04-04T03:27:43.124Z,1.12
2023-04-04T03:30:10.796Z,1.24
2023-04-04T03:32:38.203Z,1.10
2023-04-04T03:35:07.251Z,1.16
2023-04-04T03:37:34.812Z,1.15
2023-04-04T03:40:01.900Z,1.04
2023-04-04T03:42:28.661Z,1.06
2023-04-04T03:44:55.593Z,1.07
2023-04-04T03:47:22.243Z,1.21
2023-04-04T03:49:51.677Z,1.12
2023-04-04T03:52:18.949Z,0.91
2023-04-04T03:54:46.322Z,1.01
2023-04-04T03:57:13.046Z,0.97
2023-04-04T03:59:39.903Z,1.14
2023-04-04T04:02:07.071Z,1.04
2023-04-04T04:04:33.761Z,0.77
2023-04-04T04:07:01.084Z,0.85
2023-04-04T04:09:27.805Z,0.91
2023-04-04T04:14:31.813Z,1.10
2023-04-04T04:16:58.482Z,0.91
2023-04-04T04:19:25.210Z,1.02
2023-04-04T04:21:51.913Z,0.91
2023-04-04T04:24:18.500Z,1.06
2023-04-04T04:26:45.174Z,1.00
2023-04-04T04:29:11.795Z,1.04
2023-04-04T04:31:39.737Z,0.93
2023-04-04T04:34:08.888Z,1.06
2023-04-04T04:36:36.039Z,1.03
2023-04-04T04:39:03.068Z,1.04
2023-04-04T04:41:30.138Z,1.12
2023-04-04T04:43:56.853Z,1.05
2023-04-04T04:46:23.501Z,1.04
2023-04-04T04:48:50.308Z,1.16
2023-04-04T04:51:16.994Z,1.12
2023-04-04T04:53:43.758Z,1.04
2023-04-04T04:58:41.975Z,0.98
2023-04-04T05:01:08.717Z,1.02
2023-04-04T05:03:35.511Z,1.06
2023-04-04T05:08:34.580Z,0.96
2023-04-04T05:11:01.836Z,1.12
2023-04-04T05:13:29.950Z,0.79
2023-04-04T05:15:56.615Z,1.08
2023-04-04T05:18:23.290Z,0.88
2023-04-04T05:20:54.776Z,0.96
2023-04-04T05:23:21.591Z,0.85
2023-04-04T05:25:53.503Z,1.07
2023-04-04T05:28:21.328Z,1.07
2023-04-04T05:30:48.056Z,1.09
2023-04-04T05:33:14.816Z,1.03
2023-04-04T05:35:41.905Z,1.02
2023-04-04T05:38:08.910Z,1.03
2023-04-04T05:40:35.637Z,1.00
2023-04-04T05:43:04.520Z,1.06
2023-04-04T05:45:32.048Z,1.10
2023-04-04T05:47:58.865Z,1.14
2023-04-04T05:50:25.880Z,1.04
2023-04-04T05:52:57.369Z,1.14
2023-04-04T05:55:24.104Z,1.19
2023-04-04T05:57:51.657Z,1.26
2023-04-04T06:00:18.835Z,1.24
2023-04-04T06:02:45.604Z,1.19
2023-04-04T06:05:12.454Z,1.02
2023-04-04T06:07:39.083Z,0.95
2023-04-04T06:10:06.540Z,0.99
2023-04-04T06:12:33.221Z,1.05
2023-04-04T06:14:59.892Z,1.28
2023-04-04T06:17:26.757Z,1.38
2023-04-04T06:19:55.432Z,1.38
2023-04-04T06:22:22.239Z,1.57
2023-04-04T06:24:48.885Z,1.67
2023-04-04T06:27:16.046Z,1.51
2023-04-04T06:29:43.080Z,1.35
2023-04-04T06:32:09.830Z,1.57
2023-04-04T06:34:36.475Z,1.72
2023-04-04T06:37:03.772Z,1.68
2023-04-04T06:39:31.693Z,1.85
2023-04-04T06:41:58.312Z,2.12
2023-04-04T06:44:25.032Z,2.25
2023-04-04T06:46:51.773Z,2.52
2023-04-04T06:49:18.429Z,2.65
2023-04-04T06:54:16.947Z,3.02
2023-04-04T06:56:43.567Z,3.12
2023-04-04T06:59:12.521Z,3.16
2023-04-04T07:01:39.264Z,3.28
2023-04-04T07:06:44.346Z,3.88
2023-04-04T07:09:22.027Z,3.66
2023-04-04T07:11:55.082Z,3.68
2023-04-04T07:14:25.771Z,4.06
2023-04-04T07:16:53.400Z,4.20
2023-04-04T07:19:20.122Z,4.34
2023-04-04T07:21:46.732Z,4.70
2023-04-04T07:24:13.468Z,4.57
2023-04-04T07:26:41.046Z,4.64
2023-04-04T07:29:08.225Z,4.76
2023-04-04T07:31:34.875Z,5.17
2023-04-04T07:34:02.322Z,5.25
2023-04-04T07:36:29.052Z,5.44
2023-04-04T07:38:55.906Z,5.40
2023-04-04T07:41:22.848Z,5.57
2023-04-04T07:43:49.865Z,5.84
2023-04-04T07:46:17.033Z,6.05
2023-04-04T07:48:44.232Z,6.00
2023-04-04T07:51:10.844Z,6.14
2023-04-04T07:53:37.859Z,6.01
2023-04-04T07:56:06.924Z,6.08
2023-04-04T07:58:36.839Z,6.43
2023-04-04T08:01:04.109Z,6.18
2023-04-04T08:03:30.949Z,6.64
2023-04-04T08:05:57.885Z,5.77
2023-04-04T08:08:24.584Z,6.30
2023-04-04T08:10:51.288Z,6.61
2023-04-04T08:13:18.015Z,6.73
2023-04-04T08:15:44.764Z,6.67
2023-04-04T08:18:11.655Z,6.86
2023-04-04T08:23:10.138Z,6.95
2023-04-04T08:25:36.916Z,6.75
2023-04-04T08:28:05.716Z,7.21
2023-04-04T08:30:32.700Z,7.44
2023-04-04T08:32:59.417Z,7.62
2023-04-04T08:35:26.278Z,7.26
2023-04-04T08:37:53.256Z,6.81
2023-04-04T08:42:53.594Z,7.17
2023-04-04T08:47:54.253Z,7.70
2023-04-04T08:50:21.756Z,7.56
2023-04-04T08:52:49.477Z,7.43
2023-04-04T08:55:17.062Z,7.47
2023-04-04T08:57:43.743Z,7.18
2023-04-04T09:00:10.992Z,6.85
2023-04-04T09:02:43.210Z,7.53
2023-04-04T09:05:11.299Z,7.62
2023-04-04T09:10:14.488Z,7.51
2023-04-04T09:12:44.443Z,7.49
2023-04-04T09:15:11.812Z,7.29
2023-04-04T09:17:38.576Z,7.51
2023-04-04T09:20:42.034Z,7.50
2023-04-04T09:23:14.357Z,7.32
2023-04-04T09:28:24.287Z,8.05
2023-04-04T09:30:52.616Z,7.73
2023-04-04T09:33:22.029Z,8.19
2023-04-04T09:36:08.004Z,8.46
2023-04-04T09:38:37.483Z,8.84
2023-04-04T09:41:09.941Z,8.68
2023-04-04T09:43:37.742Z,8.44
2023-04-04T09:48:37.810Z,9.64
2023-04-04T09:51:06.487Z,9.67
2023-04-04T09:53:41.866Z,8.93
2023-04-04T09:56:09.245Z,8.80
2023-04-04T09:58:37.278Z,8.63
2023-04-04T10:01:12.855Z,7.71
2023-04-04T10:03:40.059Z,8.19
2023-04-04T10:06:08.518Z,9.19
2023-04-04T10:08:37.573Z,9.52
2023-04-04T10:13:37.201Z,10.00
2023-04-04T10:16:04.846Z,9.05
2023-04-04T10:18:33.635Z,9.48
2023-04-04T10:23:42.045Z,9.79
2023-04-04T10:26:08.794Z,10.30
2023-04-04T10:28:35.634Z,10.06
2023-04-04T10:31:22.774Z,9.77
2023-04-04T10:34:08.089Z,9.72
2023-04-04T10:37:07.218Z,10.59
2023-04-04T10:39:36.635Z,11.14
2023-04-04T10:42:05.941Z,10.13
2023-04-04T10:44:41.855Z,10.75
2023-04-04T10:47:15.345Z,11.10
2023-04-04T10:49:46.427Z,10.83
2023-04-04T10:52:16.138Z,10.52
2023-04-04T10:54:44.288Z,10.91
2023-04-04T10:57:12.990Z,9.87
2023-04-04T11:00:10.865Z,10.98
2023-04-04T11:02:52.745Z,10.65
2023-04-04T11:05:47.133Z,10.73
2023-04-04T11:08:20.210Z,10.95
2023-04-04T11:10:53.629Z,11.43
2023-04-04T11:13:24.229Z,11.05
2023-04-04T11:16:04.183Z,11.60
2023-04-04T11:21:14.477Z,11.43
2023-04-04T11:23:50.449Z,11.71
2023-04-04T11:26:19.025Z,10.53
2023-04-04T11:28:46.824Z,10.12
2023-04-04T11:31:19.929Z,11.18
2023-04-04T11:33:56.037Z,11.62
2023-04-04T11:36:41.703Z,11.44
2023-04-04T11:39:28.833Z,11.78
2023-04-04T11:42:00.007Z,11.85
2023-04-04T11:44:31.241Z,12.09
2023-04-04T11:47:06.771Z,11.55
2023-04-04T11:49:35.940Z,11.52
2023-04-04T11:52:11.114Z,11.77
2023-04-04T11:54:39.688Z,12.02
2023-04-04T11:57:07.604Z,12.45
2023-04-04T11:59:39.262Z,12.46
2023-04-04T12:02:06.353Z,12.59
2023-04-04T12:04:35.845Z,12.97
2023-04-04T12:07:07.013Z,12.56
2023-04-04T12:09:34.604Z,12.88
2023-04-04T12:12:01.387Z,13.34
2023-04-04T12:14:28.186Z,12.98
2023-04-04T12:16:56.848Z,12.61
2023-04-04T12:22:03.005Z,12.78
2023-04-04T12:24:30.854Z,12.90
2023-04-04T12:27:00.408Z,12.27
2023-04-04T12:29:28.712Z,12.46
2023-04-04T12:31:56.357Z,11.41
2023-04-04T12:34:25.067Z,11.08
2023-04-04T12:36:53.072Z,10.68
2023-04-04T12:39:21.681Z,10.15
2023-04-04T12:41:49.558Z,10.23
2023-04-04T12:47:10.109Z,11.15
2023-04-04T12:49:42.889Z,11.38
2023-04-04T12:52:23.661Z,11.28
2023-04-04T12:55:07.009Z,10.91
2023-04-04T12:57:36.175Z,11.15
2023-04-04T13:00:06.750Z,11.58
2023-04-04T13:02:36.452Z,11.41
2023-04-04T13:05:04.052Z,11.24
2023-04-04T13:07:34.024Z,11.32
2023-04-04T13:10:05.888Z,11.78
2023-04-04T13:12:56.970Z,11.70
2023-04-04T13:15:24.016Z,11.85
2023-04-04T13:17:52.470Z,11.76
2023-04-04T13:20:20.819Z,11.77
2023-04-04T13:25:19.104Z,11.49
2023-04-04T13:30:23.957Z,11.59
2023-04-04T13:32:50.625Z,11.58
2023-04-04T13:35:17.438Z,11.49
2023-04-04T13:37:44.040Z,11.50
2023-04-04T13:40:11.637Z,11.50
2023-04-04T13:42:38.272Z,11.42
2023-04-04T13:45:05.475Z,11.24
2023-04-04T13:47:32.171Z,11.34
2023-04-04T13:49:58.861Z,11.35
2023-04-04T13:52:25.687Z,11.46
2023-04-04T13:54:52.351Z,11.38
2023-04-04T13:57:19.074Z,11.51
2023-04-04T13:59:45.839Z,11.59
2023-04-04T14:02:12.681Z,11.41
2023-04-04T14:04:39.460Z,11.41
2023-04-04T14:07:06.392Z,11.35
2023-04-04T14:09:33.207Z,10.98
2023-04-04T14:11:59.839Z,10.94
2023-04-04T14:14:26.532Z,10.91
2023-04-04T14:16:53.329Z,10.86
2023-04-04T14:19:20.346Z,11.01
2023-04-04T14:21:49.073Z,10.85
2023-04-04T14:24:15.766Z,10.68
2023-04-04T14:26:42.735Z,10.35
2023-04-04T14:29:09.523Z,9.96
2023-04-04T14:31:36.309Z,10.37
2023-04-04T14:36:42.500Z,10.50
2023-04-04T14:41:44.068Z,10.39
2023-04-04T14:44:10.771Z,10.51
2023-04-04T14:46:37.575Z,10.55
2023-04-04T14:49:06.472Z,10.69
2023-04-04T14:51:33.580Z,10.60
2023-04-04T14:54:00.736Z,10.67
2023-04-04T14:56:27.492Z,10.58
2023-04-04T14:58:54.932Z,10.45
2023-04-04T15:01:23.020Z,10.51
2023-04-04T15:03:50.271Z,10.29
2023-04-04T15:06:17.099Z,10.30
2023-04-04T15:08:43.878Z,10.10
2023-04-04T15:11:10.875Z,10.11
2023-04-04T15:16:11.098Z,10.23
2023-04-04T15:18:38.378Z,10.31
2023-04-04T15:21:05.621Z,10.46
2023-04-04T15:23:32.598Z,10.49
2023-04-04T15:25:59.261Z,10.30
2023-04-04T15:28:26.086Z,10.35
2023-04-04T15:30:52.786Z,10.33
2023-04-04T15:33:19.472Z,10.25
2023-04-04T15:35:46.496Z,10.27
2023-04-04T15:38:13.110Z,10.31
2023-04-04T15:40:39.954Z,10.07
2023-04-04T15:43:06.997Z,9.95
2023-04-04T15:45:33.723Z,9.85
2023-04-04T15:48:00.509Z,9.62
2023-04-04T15:50:27.263Z,9.65
2023-04-04T15:52:53.948Z,9.74
2023-04-04T15:55:21.993Z,9.74
2023-04-04T15:57:48.890Z,9.62
2023-04-04T16:00:17.086Z,9.60
2023-04-04T16:02:44.119Z,9.64
2023-04-04T16:05:11.334Z,9.38
2023-04-04T16:07:38.028Z,9.35
2023-04-04T16:10:05.247Z,9.33
2023-04-04T16:12:31.931Z,9.23
2023-04-04T16:14:58.725Z,9.15
2023-04-04T16:17:26.352Z,9.05
2023-04-04T16:19:53.076Z,9.07
2023-04-04T16:22:19.842Z,8.95
2023-04-04T16:24:46.491Z,8.83
2023-04-04T16:27:13.210Z,8.55
2023-04-04T16:29:39.849Z,8.61
2023-04-04T16:32:08.499Z,8.50
2023-04-04T16:34:36.808Z,8.13
2023-04-04T16:37:04.434Z,8.24
2023-04-04T16:39:31.075Z,8.23
2023-04-04T16:41:58.138Z,8.21
2023-04-04T16:44:24.782Z,8.29
2023-04-04T16:49:23.988Z,8.24
2023-04-04T16:51:50.806Z,8.12
2023-04-04T16:54:17.544Z,8.18
2023-04-04T16:56:44.299Z,8.04
2023-04-04T16:59:11.432Z,8.08
2023-04-04T17:01:38.550Z,8.05
2023-04-04T17:06:37.212Z,8.04
2023-04-04T17:09:03.929Z,7.90
2023-04-04T17:14:03.078Z,7.79
2023-04-04T17:16:29.891Z,7.88
2023-04-04T17:18:56.570Z,7.76
2023-04-04T17:21:23.274Z,7.68
2023-04-04T17:23:49.929Z,7.48
2023-04-04T17:26:16.587Z,7.59
2023-04-04T17:28:43.770Z,7.52
2023-04-04T17:33:42.022Z,7.40
2023-04-04T17:36:09.016Z,7.33
2023-04-04T17:38:36.462Z,7.30
2023-04-04T17:41:04.474Z,7.21
2023-04-04T17:43:31.757Z,7.18
2023-04-04T17:45:58.474Z,7.07
2023-04-04T17:48:26.623Z,7.14
2023-04-04T17:50:53.763Z,6.93
2023-04-04T17:53:20.516Z,6.86
2023-04-04T17:55:47.229Z,6.83
2023-04-04T17:58:14.173Z,6.79
2023-04-04T18:03:20.855Z,6.75
2023-04-04T18:05:48.828Z,6.73
2023-04-04T18:08:15.839Z,6.64
2023-04-04T18:10:43.267Z,6.60
2023-04-04T18:13:10.117Z,6.50
2023-04-04T18:15:37.299Z,6.31
2023-04-04T18:20:37.986Z,6.44
2023-04-04T18:25:36.257Z,6.09
2023-04-04T18:28:03.405Z,6.30
2023-04-04T18:30:30.094Z,6.18
2023-04-04T18:32:57.730Z,6.23
2023-04-04T18:35:24.509Z,6.07
2023-04-04T18:37:51.379Z,6.00
2023-04-04T18:40:18.174Z,5.94
2023-04-04T18:42:45.282Z,5.98
2023-04-04T18:45:12.287Z,5.98
2023-04-04T18:47:40.528Z,5.89
2023-04-04T18:50:08.563Z,5.93
2023-04-04T18:52:36.692Z,5.91
2023-04-04T18:55:06.393Z,5.90
2023-04-04T18:57:34.626Z,5.80
2023-04-04T19:00:01.725Z,5.80
2023-04-04T19:02:28.453Z,5.74
2023-04-04T19:04:56.672Z,5.84
2023-04-04T19:07:26.822Z,5.63
2023-04-04T19:09:53.989Z,5.66
2023-04-04T19:12:20.677Z,5.66
2023-04-04T19:14:47.374Z,5.65
2023-04-04T19:17:15.821Z,5.57
2023-04-04T19:19:43.492Z,5.62
2023-04-04T19:22:10.244Z,5.55
2023-04-04T19:24:38.974Z,5.53
2023-04-04T19:27:05.977Z,5.53
2023-04-04T19:29:35.772Z,5.46
2023-04-04T19:32:12.386Z,5.43
2023-04-04T19:34:39.074Z,5.31
2023-04-04T19:37:06.741Z,5.41
2023-04-04T19:39:36.658Z,5.29
2023-04-04T19:42:05.561Z,5.15
2023-04-04T19:44:32.548Z,5.28
2023-04-04T19:46:59.808Z,5.42
2023-04-04T19:49:33.543Z,5.35
2023-04-04T19:52:04.563Z,5.21
2023-04-04T19:54:40.989Z,5.18
2023-04-04T19:57:17.592Z,5.00
2023-04-04T19:59:53.212Z,5.07
2023-04-04T20:02:48.899Z,5.15
2023-04-04T20:05:35.542Z,5.07
2023-04-04T20:08:02.227Z,5.13
2023-04-04T20:10:41.626Z,5.09
2023-04-04T20:13:09.090Z,5.15
2023-04-04T20:15:57.978Z,5.08
2023-04-04T20:18:32.162Z,5.04
2023-04-04T20:21:04.745Z,5.18
2023-04-04T20:23:32.753Z,5.04
2023-04-04T20:26:07.546Z,4.86
2023-04-04T20:28:35.294Z,4.87
2023-04-04T20:31:05.684Z,4.90
2023-04-04T20:33:39.886Z,4.93
2023-04-04T20:36:31.891Z,4.82
2023-04-04T20:38:59.481Z,4.91
2023-04-04T20:41:27.272Z,4.82
2023-04-04T20:43:56.853Z,4.73
2023-04-04T20:46:27.724Z,4.75
2023-04-04T20:48:57.066Z,4.83
2023-04-04T20:54:04.139Z,4.67
2023-04-04T20:56:36.725Z,4.71
2023-04-04T21:01:38.217Z,4.71
2023-04-04T21:04:05.082Z,4.72
2023-04-04T21:06:32.519Z,4.73
2023-04-04T21:08:59.202Z,4.40
2023-04-04T21:16:32.324Z,4.16
2023-04-04T21:19:01.219Z,4.13
2023-04-04T21:21:28.687Z,4.09
2023-04-04T21:23:56.915Z,4.06
2023-04-04T21:29:18.855Z,4.22
2023-04-04T21:31:47.096Z,3.75
2023-04-04T21:34:21.774Z,3.75
2023-04-04T21:39:30.649Z,3.88
2023-04-04T21:44:32.926Z,3.88
2023-04-04T21:46:59.612Z,4.05
2023-04-04T21:51:57.926Z,3.72
2023-04-04T21:54:24.598Z,3.95
2023-04-04T21:59:22.503Z,3.70
2023-04-04T22:01:50.577Z,3.99
2023-04-04T22:04:17.276Z,3.65
2023-04-04T22:06:44.176Z,3.69
2023-04-04T22:09:10.980Z,3.74
2023-04-04T22:11:42.855Z,3.83
2023-04-04T22:14:09.590Z,4.03
2023-04-04T22:16:40.276Z,4.02
2023-04-04T22:19:08.076Z,3.78
2023-04-04T22:21:37.323Z,3.87
2023-04-04T22:24:06.082Z,4.03
2023-04-04T22:26:33.479Z,4.03
2023-04-04T22:29:03.082Z,3.94
2023-04-04T22:31:30.894Z,3.73
2023-04-04T22:36:29.152Z,3.74
2023-04-04T22:38:58.785Z,3.69
2023-04-04T22:41:28.338Z,3.72
2023-04-04T22:43:55.549Z,3.57
2023-04-04T22:46:22.321Z,3.55
2023-04-04T22:48:49.161Z,3.38
2023-04-04T22:51:16.622Z,3.36
2023-04-04T22:53:44.591Z,3.25
2023-04-04T22:56:11.859Z,3.03
2023-04-04T22:58:38.960Z,2.63
2023-04-04T23:01:06.463Z,2.86
2023-04-04T23:03:33.299Z,2.84
2023-04-04T23:05:59.933Z,2.77
2023-04-04T23:08:26.708Z,2.68
2023-04-04T23:10:53.396Z,2.44
2023-04-04T23:13:20.302Z,2.56
2023-04-04T23:15:47.012Z,2.51
2023-04-04T23:18:13.725Z,2.74
2023-04-04T23:20:41.441Z,2.81
2023-04-04T23:23:08.217Z,2.72
2023-04-04T23:33:16.707Z,2.49
2023-04-04T23:35:43.397Z,2.50
2023-04-04T23:38:13.570Z,2.66
2023-04-04T23:40:40.864Z,2.73
2023-04-04T23:43:07.712Z,2.63
2023-04-04T23:45:39.778Z,2.45
2023-04-04T23:48:06.713Z,2.51
2023-04-04T23:50:33.569Z,2.26
2023-04-04T23:53:00.574Z,2.46
2023-04-04T23:55:27.565Z,2.43
2023-04-04T23:57:56.455Z,2.41
